| time (UTC) | temp F | wind direction | speed MPH | gust MPH | rain 1hr in | rain 24hr in | rain mn in | humidity % | barometer mb |
| 20260502151347 | 49 | 353 | 4.0 | 0.0 | 0.00 | 0.00 | 0.00 | 100 | 1021.2 |
| 20260502150841 | 49 | 19 | 2.0 | 0.0 | 0.00 | 0.00 | 0.00 | 100 | 1021.2 |
| 20260502150335 | 48 | 5 | 3.0 | 0.0 | 0.00 | 0.00 | 0.00 | 100 | 1021.3 |
| 20260502130617 | 38 | 12 | 0.0 | 0.0 | 0.00 | 0.00 | 0.00 | 100 | 1022.8 |
| 20260502130111 | 36 | 116 | 0.0 | 0.0 | 0.00 | 0.00 | 0.00 | 100 | 1022.8 |
| 20260502123541 | 37 | 69 | 1.0 | 0.0 | 0.00 | 0.00 | 0.00 | 100 | 1022.7 |
| 20260502123035 | 36 | 105 | 1.0 | 0.0 | 0.00 | 0.00 | 0.00 | 100 | 1022.7 |
| 20260502122529 | 37 | 62 | 0.0 | 0.0 | 0.00 | 0.00 | 0.00 | 100 | 1022.6 |
| 20260502122023 | 36 | 336 | 1.0 | 0.0 | 0.00 | 0.00 | 0.00 | 100 | 1022.6 |
| 20260502121517 | 37 | 353 | 2.0 | 0.0 | 0.00 | 0.00 | 0.00 | 100 | 1022.6 |
| 20260502121011 | 37 | 3 | 1.0 | 0.0 | 0.00 | 0.00 | 0.00 | 100 | 1022.5 |
| 20260502120505 | 38 | 19 | 2.0 | 0.0 | 0.00 | 0.00 | 0.00 | 100 | 1022.4 |
| 20260502115453 | 42 | 336 | 1.0 | 0.0 | 0.00 | 0.00 | 0.00 | 100 | 1022.4 |
| 20260502114947 | 40 | 326 | 2.0 | 0.0 | 0.00 | 0.00 | 0.00 | 100 | 1022.4 |
| 20260502113935 | 39 | 321 | 4.0 | 0.0 | 0.00 | 0.00 | 0.00 | 100 | 1022.4 |
| 20260502113429 | 39 | 313 | 1.0 | 0.0 | 0.00 | 0.00 | 0.00 | 100 | 1022.4 |
| 20260502112923 | 39 | 179 | 0.0 | 0.0 | 0.00 | 0.00 | 0.00 | 100 | 1022.4 |
| 20260502112417 | 38 | 84 | 0.0 | 0.0 | 0.00 | 0.00 | 0.00 | 100 | 1022.3 |
| 20260502111911 | 39 | 92 | 1.0 | 0.0 | 0.00 | 0.00 | 0.00 | 100 | 1022.3 |
| 20260502111405 | 40 | 148 | 2.0 | 0.0 | 0.00 | 0.00 | 0.00 | 100 | 1022.3 |
| 20260502110859 | 41 | 153 | 3.0 | 0.0 | 0.00 | 0.00 | 0.00 | 100 | 1022.3 |
| 20260502110353 | 41 | 161 | 2.0 | 0.0 | 0.00 | 0.00 | 0.00 | 100 | 1022.3 |
| 20260502105847 | 40 | 157 | 1.0 | 0.0 | 0.00 | 0.00 | 0.00 | 100 | 1022.3 |
| 20260502105341 | 39 | 173 | 1.0 | 0.0 | 0.00 | 0.00 | 0.00 | 100 | 1022.4 |
| 20260502104835 | 39 | 179 | 1.0 | 0.0 | 0.00 | 0.00 | 0.00 | 100 | 1022.3 |
| 20260502104329 | 39 | 168 | 1.0 | 0.0 | 0.00 | 0.00 | 0.00 | 100 | 1022.3 |
| 20260502103823 | 39 | 206 | 2.0 | 0.0 | 0.00 | 0.00 | 0.00 | 100 | 1022.2 |
| 20260502103317 | 38 | 198 | 3.0 | 0.0 | 0.00 | 0.00 | 0.00 | 100 | 1022.2 |
| 20260502102811 | 40 | 192 | 2.0 | 0.0 | 0.00 | 0.00 | 0.00 | 100 | 1022.2 |
| 20260502102306 | 41 | 140 | 1.0 | 0.0 | 0.00 | 0.00 | 0.00 | 100 | 1022.2 |
| 20260502101759 | 42 | 149 | 3.0 | 0.0 | 0.00 | 0.00 | 0.00 | 100 | 1022.1 |
| 20260502101253 | 42 | 132 | 3.0 | 0.0 | 0.00 | 0.00 | 0.00 | 100 | 1022.1 |
| 20260502100747 | 42 | 130 | 4.0 | 11.0 | 0.00 | 0.00 | 0.00 | 98 | 1022.1 |
| 20260502100241 | 43 | 125 | 4.0 | 11.0 | 0.00 | 0.00 | 0.00 | 100 | 1022.1 |
| 20260502091141 | 41 | 201 | 2.0 | 0.0 | 0.00 | 0.00 | 0.00 | 100 | 1022.1 |
| 20260502090635 | 41 | 156 | 0.0 | 0.0 | 0.00 | 0.00 | 0.00 | 100 | 1022.0 |
| 20260502090129 | 41 | 140 | 1.0 | 0.0 | 0.00 | 0.00 | 0.00 | 100 | 1022.0 |
| 20260502071423 | 46 | 160 | 2.0 | 0.0 | 0.00 | 0.00 | 0.00 | 100 | 1021.7 |
| 20260502070917 | 47 | 152 | 2.0 | 0.0 | 0.00 | 0.00 | 0.00 | 100 | 1021.7 |
| 20260502065859 | 46 | 127 | 1.0 | 0.0 | 0.00 | 0.00 | 0.00 | 100 | 1021.6 |
| 20260502065353 | 47 | 98 | 2.0 | 0.0 | 0.00 | 0.00 | 0.00 | 100 | 1021.7 |
| 20260502064847 | 46 | 137 | 3.0 | 0.0 | 0.00 | 0.00 | 0.00 | 100 | 1021.6 |
| 20260502064341 | 45 | 165 | 6.0 | 0.0 | 0.00 | 0.00 | 0.00 | 100 | 1021.5 |
| 20260502063835 | 46 | 167 | 5.0 | 0.0 | 0.00 | 0.00 | 0.00 | 100 | 1021.5 |
| 20260502063329 | 45 | 202 | 6.0 | 0.0 | 0.00 | 0.00 | 0.00 | 100 | 1021.4 |
| 20260502062823 | 49 | 158 | 4.0 | 12.0 | 0.00 | 0.00 | 0.00 | 100 | 1021.3 |
| 20260502062317 | 49 | 146 | 5.0 | 0.0 | 0.00 | 0.00 | 0.00 | 100 | 1021.2 |
| 20260502061811 | 48 | 146 | 4.0 | 0.0 | 0.00 | 0.00 | 0.00 | 100 | 1021.3 |
| 20260502061305 | 48 | 153 | 4.0 | 0.0 | 0.00 | 0.00 | 0.00 | 100 | 1021.2 |
| 20260502060759 | 48 | 159 | 5.0 | 0.0 | 0.00 | 0.00 | 0.00 | 100 | 1021.2 |
| 20260502060253 | 47 | 171 | 5.0 | 0.0 | 0.00 | 0.00 | 0.00 | 100 | 1021.2 |
| 20260502055747 | 47 | 164 | 6.0 | 0.0 | 0.00 | 0.00 | 0.00 | 100 | 1021.2 |
| 20260502055241 | 48 | 143 | 5.0 | 0.0 | 0.00 | 0.00 | 0.00 | 100 | 1021.2 |
| 20260502054735 | 47 | 144 | 4.0 | 0.0 | 0.00 | 0.00 | 0.00 | 100 | 1021.1 |
| 20260502054229 | 46 | 159 | 3.0 | 0.0 | 0.00 | 0.00 | 0.00 | 100 | 1021.1 |
| 20260502053723 | 45 | 167 | 4.0 | 0.0 | 0.00 | 0.00 | 0.00 | 100 | 1021.1 |
| 20260502053217 | 45 | 182 | 5.0 | 0.0 | 0.00 | 0.00 | 0.00 | 100 | 1021.1 |
| 20260502052711 | 45 | 205 | 4.0 | 0.0 | 0.00 | 0.00 | 0.00 | 100 | 1021.0 |
| 20260502052205 | 48 | 163 | 4.0 | 0.0 | 0.00 | 0.00 | 0.00 | 100 | 1020.9 |
| 20260502051659 | 49 | 152 | 3.0 | 0.0 | 0.00 | 0.00 | 0.00 | 100 | 1020.8 |
| 20260502051153 | 49 | 140 | 5.0 | 12.0 | 0.00 | 0.00 | 0.00 | 100 | 1020.8 |
| 20260502050647 | 49 | 149 | 4.0 | 0.0 | 0.00 | 0.00 | 0.00 | 100 | 1020.8 |
| 20260502050141 | 49 | 149 | 4.0 | 0.0 | 0.00 | 0.00 | 0.00 | 100 | 1020.9 |
| 20260502045635 | 49 | 165 | 4.0 | 0.0 | 0.00 | 0.00 | 0.00 | 100 | 1020.9 |
| 20260502045129 | 50 | 141 | 5.0 | 0.0 | 0.00 | 0.00 | 0.00 | 100 | 1020.9 |
| 20260502044623 | 49 | 140 | 5.0 | 0.0 | 0.00 | 0.00 | 0.00 | 100 | 1020.9 |
| 20260502044117 | 48 | 140 | 4.0 | 0.0 | 0.00 | 0.00 | 0.00 | 100 | 1020.9 |
| 20260502043611 | 48 | 154 | 2.0 | 0.0 | 0.00 | 0.00 | 0.00 | 100 | 1020.9 |
| 20260502043105 | 48 | 147 | 3.0 | 0.0 | 0.00 | 0.00 | 0.00 | 100 | 1020.9 |
| 20260502042559 | 48 | 148 | 3.0 | 0.0 | 0.00 | 0.00 | 0.00 | 100 | 1020.9 |
| 20260502042053 | 49 | 161 | 4.0 | 0.0 | 0.00 | 0.00 | 0.00 | 100 | 1020.9 |
| 20260502041547 | 48 | 161 | 3.0 | 0.0 | 0.00 | 0.00 | 0.00 | 100 | 1020.8 |
| 20260502041041 | 48 | 146 | 3.0 | 0.0 | 0.00 | 0.00 | 0.00 | 100 | 1020.8 |
| 20260502040535 | 47 | 133 | 3.0 | 0.0 | 0.00 | 0.00 | 0.00 | 100 | 1020.7 |
| 20260502040029 | 48 | 130 | 3.0 | 0.0 | 0.00 | 0.00 | 0.00 | 100 | 1020.6 |
| 20260502035523 | 49 | 138 | 3.0 | 0.0 | 0.00 | 0.00 | 0.00 | 100 | 1020.6 |
| 20260502035017 | 49 | 132 | 2.0 | 0.0 | 0.00 | 0.00 | 0.00 | 100 | 1020.5 |
| 20260502034511 | 49 | 135 | 3.0 | 0.0 | 0.00 | 0.00 | 0.00 | 100 | 1020.4 |
| 20260502034005 | 51 | 129 | 3.0 | 0.0 | 0.00 | 0.00 | 0.00 | 100 | 1020.3 |
| 20260502033459 | 52 | 127 | 1.0 | 0.0 | 0.00 | 0.00 | 0.00 | 100 | 1020.2 |
| 20260502032953 | 53 | 157 | 1.0 | 0.0 | 0.00 | 0.00 | 0.00 | 100 | 1020.2 |
| 20260502032447 | 53 | 162 | 0.0 | 0.0 | 0.00 | 0.00 | 0.00 | 100 | 1020.1 |
| 20260502031941 | 53 | 160 | 0.0 | 0.0 | 0.00 | 0.00 | 0.00 | 100 | 1020.0 |
| 20260502031435 | 53 | 149 | 1.0 | 0.0 | 0.00 | 0.00 | 0.00 | 100 | 1020.0 |
| 20260502030929 | 52 | 127 | 1.0 | 0.0 | 0.00 | 0.00 | 0.00 | 100 | 1019.9 |
| 20260502030423 | 53 | 146 | 3.0 | 0.0 | 0.00 | 0.00 | 0.00 | 100 | 1019.7 |
| 20260502025917 | 52 | 168 | 0.0 | 0.0 | 0.00 | 0.00 | 0.00 | 100 | 1019.6 |
| 20260502025411 | 53 | 190 | 0.0 | 0.0 | 0.00 | 0.00 | 0.00 | 100 | 1019.5 |
| 20260502024905 | 54 | 189 | 0.0 | 0.0 | 0.00 | 0.00 | 0.00 | 100 | 1019.4 |
| 20260502024359 | 55 | 165 | 0.0 | 0.0 | 0.00 | 0.00 | 0.00 | 100 | 1019.3 |
| 20260502023853 | 56 | 232 | 0.0 | 0.0 | 0.00 | 0.00 | 0.00 | 100 | 1019.3 |
| 20260502023347 | 56 | 236 | 1.0 | 0.0 | 0.00 | 0.00 | 0.00 | 100 | 1019.2 |
| 20260502022841 | 56 | 230 | 0.0 | 0.0 | 0.00 | 0.00 | 0.00 | 100 | 1019.1 |
| 20260502022335 | 57 | 212 | 0.0 | 0.0 | 0.00 | 0.00 | 0.00 | 100 | 1019.1 |
| 20260502021829 | 57 | 237 | 1.0 | 0.0 | 0.00 | 0.00 | 0.00 | 100 | 1019.0 |
| 20260502021323 | 58 | 257 | 1.0 | 0.0 | 0.00 | 0.00 | 0.00 | 100 | 1018.9 |
| 20260502020817 | 58 | 251 | 1.0 | 0.0 | 0.00 | 0.00 | 0.00 | 100 | 1018.9 |
| 20260502020311 | 59 | 247 | 1.0 | 0.0 | 0.00 | 0.00 | 0.00 | 100 | 1018.8 |
| 20260502015805 | 60 | 253 | 0.0 | 0.0 | 0.00 | 0.00 | 0.00 | 100 | 1018.7 |
| 20260502015259 | 61 | 256 | 2.0 | 0.0 | 0.00 | 0.00 | 0.00 | 100 | 1018.6 |
| 20260502014753 | 61 | 263 | 1.0 | 0.0 | 0.00 | 0.00 | 0.00 | 100 | 1018.6 |
| 20260502014247 | 63 | 262 | 1.0 | 0.0 | 0.00 | 0.00 | 0.00 | 100 | 1018.6 |
| 20260502013741 | 65 | 311 | 3.0 | 0.0 | 0.00 | 0.00 | 0.00 | 100 | 1018.5 |
| 20260502013235 | 65 | 324 | 3.0 | 0.0 | 0.00 | 0.00 | 0.00 | 100 | 1018.4 |
| 20260502012729 | 65 | 316 | 3.0 | 0.0 | 0.00 | 0.00 | 0.00 | 100 | 1018.3 |
| 20260502012223 | 65 | 317 | 3.0 | 0.0 | 0.00 | 0.00 | 0.00 | 100 | 1018.2 |
| 20260502011717 | 65 | 316 | 3.0 | 0.0 | 0.00 | 0.00 | 0.00 | 100 | 1018.2 |
| 20260502011211 | 65 | 319 | 4.0 | 0.0 | 0.00 | 0.00 | 0.00 | 100 | 1018.1 |
| 20260502010705 | 66 | 310 | 3.0 | 0.0 | 0.00 | 0.00 | 0.00 | 100 | 1018.2 |
| 20260502010159 | 66 | 332 | 2.0 | 0.0 | 0.00 | 0.00 | 0.00 | 100 | 1018.1 |
| 20260502005653 | 66 | 327 | 4.0 | 0.0 | 0.00 | 0.00 | 0.00 | 100 | 1018.1 |
| 20260502005147 | 66 | 347 | 3.0 | 0.0 | 0.00 | 0.00 | 0.00 | 100 | 1018.1 |
| 20260502004641 | 66 | 309 | 4.0 | 0.0 | 0.00 | 0.00 | 0.00 | 100 | 1018.0 |
| 20260502004135 | 66 | 324 | 5.0 | 0.0 | 0.00 | 0.00 | 0.00 | 100 | 1018.0 |
| 20260502003629 | 66 | 330 | 4.0 | 0.0 | 0.00 | 0.00 | 0.00 | 100 | 1018.0 |
| 20260502003123 | 66 | 326 | 6.0 | 0.0 | 0.00 | 0.00 | 0.00 | 100 | 1018.0 |
| 20260502002617 | 66 | 333 | 4.0 | 0.0 | 0.00 | 0.00 | 0.00 | 100 | 1018.0 |
| 20260502002111 | 66 | 337 | 4.0 | 0.0 | 0.00 | 0.00 | 0.00 | 100 | 1018.0 |
| 20260502001605 | 67 | 303 | 2.0 | 0.0 | 0.00 | 0.00 | 0.00 | 100 | 1018.1 |
| 20260502001059 | 67 | 308 | 3.0 | 0.0 | 0.00 | 0.00 | 0.00 | 100 | 1018.1 |
| 20260502000553 | 66 | 320 | 5.0 | 0.0 | 0.00 | 0.00 | 0.00 | 100 | 1018.1 |
| 20260502000047 | 67 | 344 | 4.0 | 0.0 | 0.00 | 0.00 | 0.00 | 100 | 1018.1 |
| 20260501235541 | 66 | 329 | 4.0 | 0.0 | 0.00 | 0.00 | 0.00 | 100 | 1018.2 |
| 20260501235035 | 66 | 340 | 6.0 | 0.0 | 0.00 | 0.00 | 0.00 | 100 | 1018.2 |
| 20260501234529 | 67 | 305 | 5.0 | 0.0 | 0.00 | 0.00 | 0.00 | 100 | 1018.2 |
| 20260501234023 | 67 | 284 | 2.0 | 0.0 | 0.00 | 0.00 | 0.00 | 100 | 1018.2 |
| 20260501233517 | 66 | 304 | 6.0 | 0.0 | 0.00 | 0.00 | 0.00 | 100 | 1018.3 |
| 20260501233011 | 66 | 331 | 6.0 | 0.0 | 0.00 | 0.00 | 0.00 | 100 | 1018.3 |
| 20260501232505 | 66 | 299 | 5.0 | 0.0 | 0.00 | 0.00 | 0.00 | 100 | 1018.2 |
| 20260501231959 | 66 | 310 | 6.0 | 0.0 | 0.00 | 0.00 | 0.00 | 100 | 1018.2 |
| 20260501231453 | 66 | 325 | 2.0 | 0.0 | 0.00 | 0.00 | 0.00 | 100 | 1018.2 |
| 20260501230947 | 66 | 296 | 4.0 | 0.0 | 0.00 | 0.00 | 0.00 | 100 | 1018.2 |
| 20260501230441 | 66 | 305 | 5.0 | 11.0 | 0.00 | 0.00 | 0.00 | 100 | 1018.3 |
| 20260501225935 | 66 | 324 | 6.0 | 0.0 | 0.00 | 0.00 | 0.00 | 100 | 1018.3 |
| 20260501225429 | 66 | 314 | 4.0 | 10.0 | 0.00 | 0.00 | 0.00 | 100 | 1018.3 |
| 20260501224923 | 66 | 260 | 2.0 | 0.0 | 0.00 | 0.00 | 0.00 | 100 | 1018.3 |
| 20260501224417 | 67 | 283 | 3.0 | 0.0 | 0.00 | 0.00 | 0.00 | 86 | 1018.4 |
| 20260501223911 | 66 | 271 | 1.0 | 10.0 | 0.00 | 0.00 | 0.00 | 100 | 1018.5 |
| 20260501223405 | 66 | 316 | 6.0 | 0.0 | 0.00 | 0.00 | 0.00 | 100 | 1018.6 |
| 20260501222859 | 66 | 300 | 3.0 | 0.0 | 0.00 | 0.00 | 0.00 | 100 | 1018.6 |
| 20260501222354 | 66 | 324 | 4.0 | 0.0 | 0.00 | 0.00 | 0.00 | 100 | 1018.7 |
| 20260501221847 | 65 | 304 | 5.0 | 0.0 | 0.00 | 0.00 | 0.00 | 100 | 1018.8 |
| 20260501221341 | 66 | 291 | 5.0 | 0.0 | 0.00 | 0.00 | 0.00 | 100 | 1018.9 |
| 20260501220835 | 65 | 248 | 3.0 | 0.0 | 0.00 | 0.00 | 0.00 | 100 | 1018.9 |
| 20260501220329 | 65 | 223 | 2.0 | 12.0 | 0.00 | 0.00 | 0.00 | 100 | 1019.0 |
| 20260501215317 | 65 | 338 | 4.0 | 11.0 | 0.00 | 0.00 | 0.00 | 100 | 1019.2 |
| 20260501214811 | 64 | 317 | 6.0 | 11.0 | 0.00 | 0.00 | 0.00 | 100 | 1019.2 |
| 20260501214305 | 66 | 276 | 4.0 | 10.0 | 0.00 | 0.00 | 0.00 | 100 | 1019.3 |
| 20260501213759 | 65 | 300 | 5.0 | 10.0 | 0.00 | 0.00 | 0.00 | 100 | 1019.4 |
| 20260501213253 | 66 | 318 | 6.0 | 10.0 | 0.00 | 0.00 | 0.00 | 100 | 1019.4 |
| 20260501212747 | 66 | 323 | 3.0 | 10.0 | 0.00 | 0.00 | 0.00 | 100 | 1019.4 |
| 20260501212241 | 66 | 287 | 5.0 | 10.0 | 0.00 | 0.00 | 0.00 | 100 | 1019.4 |
| 20260501211735 | 63 | 0 | 7.0 | 0.0 | 0.00 | 0.00 | 0.00 | 100 | 1019.4 |
| 20260501211229 | 65 | 277 | 2.0 | 0.0 | 0.00 | 0.00 | 0.00 | 100 | 1019.5 |
| 20260501210723 | 65 | 264 | 2.0 | 0.0 | 0.00 | 0.00 | 0.00 | 100 | 1019.5 |
| 20260501210218 | 64 | 266 | 1.0 | 0.0 | 0.00 | 0.00 | 0.00 | 100 | 1019.5 |
| 20260501205711 | 65 | 276 | 2.0 | 10.0 | 0.00 | 0.00 | 0.00 | 100 | 1019.5 |
| 20260501205205 | 64 | 298 | 5.0 | 10.0 | 0.00 | 0.00 | 0.00 | 98 | 1019.5 |
| 20260501204659 | 64 | 264 | 2.0 | 11.0 | 0.00 | 0.00 | 0.00 | 100 | 1019.6 |
| 20260501204153 | 63 | 340 | 6.0 | 11.0 | 0.00 | 0.00 | 0.00 | 100 | 1019.6 |
| 20260501203647 | 63 | 307 | 2.0 | 11.0 | 0.00 | 0.00 | 0.00 | 100 | 1019.5 |
| 20260501203141 | 63 | 359 | 0.0 | 0.0 | 0.00 | 0.00 | 0.00 | 100 | 1019.5 |
| 20260501202635 | 63 | 326 | 4.0 | 0.0 | 0.00 | 0.00 | 0.00 | 100 | 1019.5 |
| 20260501202129 | 63 | 345 | 6.0 | 12.0 | 0.00 | 0.00 | 0.00 | 100 | 1019.5 |
| 20260501201623 | 62 | 303 | 8.0 | 12.0 | 0.00 | 0.00 | 0.00 | 100 | 1019.5 |
| 20260501201117 | 63 | 312 | 4.0 | 0.0 | 0.00 | 0.00 | 0.00 | 100 | 1019.4 |
| 20260501200611 | 62 | 299 | 2.0 | 11.0 | 0.00 | 0.00 | 0.00 | 100 | 1019.5 |
| 20260501200105 | 62 | 348 | 9.0 | 11.0 | 0.00 | 0.00 | 0.00 | 100 | 1019.5 |
| 20260501195559 | 63 | 307 | 2.0 | 0.0 | 0.00 | 0.00 | 0.00 | 99 | 1019.6 |
| 20260501195053 | 61 | 12 | 3.0 | 0.0 | 0.00 | 0.00 | 0.00 | 100 | 1019.7 |
| 20260501194547 | 61 | 349 | 3.0 | 11.0 | 0.00 | 0.00 | 0.00 | 100 | 1019.7 |
| 20260501194041 | 62 | 356 | 7.0 | 10.0 | 0.00 | 0.00 | 0.00 | 100 | 1019.7 |
| 20260501193535 | 60 | 14 | 4.0 | 11.0 | 0.00 | 0.00 | 0.00 | 100 | 1019.8 |
| 20260501193029 | 61 | 359 | 3.0 | 11.0 | 0.00 | 0.00 | 0.00 | 100 | 1019.8 |
| 20260501192523 | 62 | 1 | 7.0 | 0.0 | 0.00 | 0.00 | 0.00 | 100 | 1019.8 |
| 20260501192017 | 62 | 356 | 8.0 | 11.0 | 0.00 | 0.00 | 0.00 | 100 | 1019.8 |
| 20260501191511 | 61 | 353 | 4.0 | 0.0 | 0.00 | 0.00 | 0.00 | 100 | 1019.8 |
| 20260501191005 | 61 | 327 | 4.0 | 0.0 | 0.00 | 0.00 | 0.00 | 100 | 1019.9 |
| 20260501190459 | 61 | 333 | 4.0 | 0.0 | 0.00 | 0.00 | 0.00 | 100 | 1020.0 |
| 20260501185953 | 62 | 337 | 6.0 | 0.0 | 0.00 | 0.00 | 0.00 | 100 | 1020.0 |
| 20260501185447 | 60 | 337 | 5.0 | 0.0 | 0.00 | 0.00 | 0.00 | 100 | 1020.0 |
| 20260501184941 | 61 | 319 | 6.0 | 10.0 | 0.00 | 0.00 | 0.00 | 100 | 1020.0 |
| 20260501184435 | 61 | 299 | 3.0 | 0.0 | 0.00 | 0.00 | 0.00 | 100 | 1020.1 |
| 20260501183929 | 60 | 306 | 5.0 | 12.0 | 0.00 | 0.00 | 0.00 | 100 | 1020.2 |
| 20260501183423 | 61 | 333 | 5.0 | 12.0 | 0.00 | 0.00 | 0.00 | 100 | 1020.2 |
| 20260501182917 | 59 | 336 | 4.0 | 0.0 | 0.00 | 0.00 | 0.00 | 100 | 1020.3 |
| 20260501182411 | 60 | 82 | 1.0 | 0.0 | 0.00 | 0.00 | 0.00 | 100 | 1020.3 |
| 20260501181905 | 58 | 27 | 4.0 | 0.0 | 0.00 | 0.00 | 0.00 | 100 | 1020.4 |
| 20260501181359 | 59 | 9 | 6.0 | 0.0 | 0.00 | 0.00 | 0.00 | 100 | 1020.4 |
| 20260501180853 | 59 | 358 | 6.0 | 0.0 | 0.00 | 0.00 | 0.00 | 100 | 1020.4 |
| 20260501180347 | 58 | 220 | 2.0 | 0.0 | 0.00 | 0.00 | 0.00 | 100 | 1020.4 |
| 20260501175841 | 59 | 304 | 4.0 | 0.0 | 0.00 | 0.00 | 0.00 | 100 | 1020.4 |
| 20260501175336 | 60 | 321 | 3.0 | 0.0 | 0.00 | 0.00 | 0.00 | 100 | 1020.4 |
| 20260501174829 | 59 | 50 | 2.0 | 0.0 | 0.00 | 0.00 | 0.00 | 100 | 1020.5 |
| 20260501174323 | 57 | 169 | 3.0 | 0.0 | 0.00 | 0.00 | 0.00 | 100 | 1020.5 |
| 20260501173817 | 57 | 168 | 2.0 | 0.0 | 0.00 | 0.00 | 0.00 | 100 | 1020.6 |
| 20260501173311 | 58 | 264 | 1.0 | 0.0 | 0.00 | 0.00 | 0.00 | 100 | 1020.6 |
| 20260501172805 | 57 | 115 | 0.0 | 0.0 | 0.00 | 0.00 | 0.00 | 100 | 1020.7 |
| 20260501171754 | 57 | 194 | 2.0 | 0.0 | 0.00 | 0.00 | 0.00 | 100 | 1020.8 |
| 20260501171247 | 56 | 260 | 0.0 | 0.0 | 0.00 | 0.00 | 0.00 | 100 | 1020.9 |
| 20260501170741 | 55 | 192 | 2.0 | 0.0 | 0.00 | 0.00 | 0.00 | 100 | 1021.0 |
| 20260501170235 | 55 | 210 | 2.0 | 0.0 | 0.00 | 0.00 | 0.00 | 100 | 1021.1 |
| 20260501165729 | 56 | 325 | 3.0 | 0.0 | 0.00 | 0.00 | 0.00 | 100 | 1021.2 |
| 20260501165223 | 55 | 331 | 2.0 | 0.0 | 0.00 | 0.00 | 0.00 | 100 | 1021.2 |
| 20260501164717 | 55 | 319 | 2.0 | 0.0 | 0.00 | 0.00 | 0.00 | 100 | 1021.3 |
| 20260501164211 | 55 | 306 | 4.0 | 0.0 | 0.00 | 0.00 | 0.00 | 100 | 1021.3 |
| 20260501163705 | 55 | 332 | 4.0 | 0.0 | 0.00 | 0.00 | 0.00 | 100 | 1021.4 |
| 20260501163159 | 55 | 325 | 4.0 | 0.0 | 0.00 | 0.00 | 0.00 | 100 | 1021.4 |
| 20260501162653 | 54 | 312 | 3.0 | 0.0 | 0.00 | 0.00 | 0.00 | 100 | 1021.4 |
| 20260501162147 | 54 | 319 | 3.0 | 0.0 | 0.00 | 0.00 | 0.00 | 100 | 1021.4 |
| 20260501161641 | 54 | 303 | 3.0 | 0.0 | 0.00 | 0.00 | 0.00 | 100 | 1021.5 |
| 20260501161135 | 53 | 321 | 5.0 | 0.0 | 0.00 | 0.00 | 0.00 | 100 | 1021.5 |
| 20260501160629 | 53 | 330 | 4.0 | 0.0 | 0.00 | 0.00 | 0.00 | 100 | 1021.5 |
| 20260501160123 | 54 | 315 | 3.0 | 0.0 | 0.00 | 0.00 | 0.00 | 100 | 1021.6 |
| 20260501155617 | 52 | 298 | 4.0 | 0.0 | 0.00 | 0.00 | 0.00 | 100 | 1021.6 |
| 20260501155111 | 53 | 298 | 3.0 | 0.0 | 0.00 | 0.00 | 0.00 | 100 | 1021.6 |
| 20260501154605 | 53 | 289 | 1.0 | 0.0 | 0.00 | 0.00 | 0.00 | 100 | 1021.6 |
| 20260501154059 | 52 | 285 | 2.0 | 0.0 | 0.00 | 0.00 | 0.00 | 100 | 1021.7 |
| 20260501153553 | 52 | 306 | 3.0 | 0.0 | 0.00 | 0.00 | 0.00 | 100 | 1021.7 |
| 20260501153047 | 52 | 286 | 3.0 | 0.0 | 0.00 | 0.00 | 0.00 | 100 | 1021.7 |
| 20260501152541 | 52 | 278 | 3.0 | 0.0 | 0.00 | 0.00 | 0.00 | 100 | 1021.8 |
| 20260501152035 | 51 | 271 | 4.0 | 0.0 | 0.00 | 0.00 | 0.00 | 100 | 1021.8 |